createdAt,value
2018-08-27T00:00:28.022Z,0.00
2018-08-27T00:01:28.013Z,0.00
2018-08-27T00:02:28.047Z,0.00
2018-08-27T00:03:49.015Z,0.00
2018-08-27T00:04:28.021Z,0.00
2018-08-27T00:05:27.992Z,0.00
2018-08-27T00:06:27.988Z,0.00
2018-08-27T00:07:27.983Z,0.00
2018-08-27T00:08:27.979Z,0.00
2018-08-27T00:09:48.984Z,0.00
2018-08-27T00:10:27.966Z,0.00
2018-08-27T00:11:27.973Z,0.00
2018-08-27T00:12:27.961Z,0.00
2018-08-27T00:13:27.957Z,0.00
2018-08-27T00:14:27.944Z,0.00
2018-08-27T00:15:48.953Z,0.00
2018-08-27T00:16:27.934Z,0.00
2018-08-27T00:17:27.929Z,0.00
2018-08-27T00:18:27.929Z,0.00
2018-08-27T00:19:27.919Z,0.00
2018-08-27T00:20:27.913Z,0.00
2018-08-27T00:21:48.919Z,0.00
2018-08-27T00:22:27.904Z,0.00
2018-08-27T00:23:27.900Z,0.00
2018-08-27T00:24:27.898Z,0.00
2018-08-27T00:25:27.922Z,0.00
2018-08-27T00:26:27.880Z,0.00
2018-08-27T00:27:48.888Z,0.00
2018-08-27T00:28:27.876Z,0.00
2018-08-27T00:29:27.868Z,0.00
2018-08-27T00:30:27.858Z,0.00
2018-08-27T00:31:27.854Z,0.00
2018-08-27T00:32:27.851Z,0.00
2018-08-27T00:33:48.902Z,0.00
2018-08-27T00:34:27.839Z,0.00
2018-08-27T00:35:27.846Z,0.00
2018-08-27T00:36:27.827Z,0.00
2018-08-27T00:37:27.825Z,0.00
2018-08-27T00:38:27.821Z,0.00
2018-08-27T00:39:48.821Z,0.00
2018-08-27T00:40:27.808Z,0.00
2018-08-27T00:41:27.800Z,0.00
2018-08-27T00:42:27.804Z,0.00
2018-08-27T00:43:27.795Z,0.00
2018-08-27T00:44:27.806Z,0.00
2018-08-27T00:45:48.789Z,0.00
2018-08-27T00:46:27.789Z,0.00
2018-08-27T00:47:27.769Z,0.00
2018-08-27T00:48:27.763Z,0.00
2018-08-27T00:49:27.762Z,0.00
2018-08-27T00:50:27.755Z,0.00
2018-08-27T00:51:48.809Z,0.00
2018-08-27T00:52:27.823Z,0.00
2018-08-27T00:53:27.739Z,0.00
2018-08-27T00:54:27.733Z,0.00
2018-08-27T00:55:27.731Z,0.00
2018-08-27T00:56:27.723Z,0.00
2018-08-27T00:57:48.723Z,0.00
2018-08-27T00:58:27.717Z,0.00
2018-08-27T00:59:27.709Z,0.00
2018-08-27T01:00:27.703Z,0.00
2018-08-27T01:01:27.730Z,0.00
2018-08-27T01:02:27.691Z,0.00
2018-08-27T01:03:48.791Z,0.00
2018-08-27T01:04:27.680Z,0.00
2018-08-27T01:05:27.677Z,0.00
2018-08-27T01:06:27.672Z,0.00
2018-08-27T01:07:27.663Z,0.00
2018-08-27T01:08:27.658Z,0.00
2018-08-27T01:09:48.662Z,0.00
2018-08-27T01:10:27.653Z,0.00
2018-08-27T01:11:27.649Z,0.00
2018-08-27T01:12:27.641Z,0.00
2018-08-27T01:13:27.637Z,0.00
2018-08-27T01:14:27.628Z,0.00
2018-08-27T01:15:48.628Z,0.00
2018-08-27T01:16:27.636Z,0.00
2018-08-27T01:17:27.615Z,0.00
2018-08-27T01:18:27.606Z,0.00
2018-08-27T01:19:27.602Z,0.00
2018-08-27T01:20:27.594Z,0.00
2018-08-27T01:21:48.598Z,0.00
2018-08-27T01:22:27.653Z,0.00
2018-08-27T01:23:27.589Z,0.00
2018-08-27T01:24:27.575Z,0.00
2018-08-27T01:25:27.573Z,0.00
2018-08-27T01:26:27.567Z,0.00
2018-08-27T01:27:48.566Z,0.00
2018-08-27T01:28:27.556Z,0.00
2018-08-27T01:29:27.558Z,0.00
2018-08-27T01:30:27.545Z,0.00
2018-08-27T02:04:09.032Z,0.00
2018-08-27T02:05:09.001Z,0.00
2018-08-27T02:07:01.965Z,0.00
2018-08-27T02:08:01.954Z,0.00
2018-08-27T02:09:55.037Z,0.00
2018-08-27T02:10:55.008Z,0.00
2018-08-27T02:12:47.969Z,0.00
2018-08-27T02:13:47.931Z,0.00
2018-08-27T02:15:40.832Z,0.00
2018-08-27T02:16:40.818Z,0.00
2018-08-27T02:18:33.827Z,0.00
2018-08-27T02:19:33.788Z,0.00
2018-08-27T02:21:26.723Z,0.00
2018-08-27T02:22:26.712Z,0.00
2018-08-27T02:24:19.706Z,0.00
2018-08-27T02:25:19.682Z,0.00
2018-08-27T02:27:12.661Z,0.00
2018-08-27T02:28:12.636Z,0.00
2018-08-27T02:30:05.616Z,0.00
2018-08-27T02:31:05.599Z,0.00
2018-08-27T02:32:58.520Z,0.00
2018-08-27T02:33:58.516Z,0.00
2018-08-27T02:35:51.413Z,0.00
2018-08-27T02:36:51.395Z,0.00
2018-08-27T02:38:44.386Z,0.00
2018-08-27T02:39:44.354Z,0.00
2018-08-27T02:41:37.323Z,0.00
2018-08-27T02:42:37.302Z,0.00
2018-08-27T02:44:30.275Z,0.00
2018-08-27T02:45:30.257Z,0.00
2018-08-27T02:46:30.250Z,0.00
2018-08-27T02:47:30.250Z,0.00
2018-08-27T02:48:30.266Z,0.00
2018-08-27T02:49:30.245Z,0.00
2018-08-27T02:50:30.249Z,0.00
2018-08-27T02:51:30.231Z,0.00
2018-08-27T02:52:30.231Z,0.00
2018-08-27T02:53:30.239Z,0.00
2018-08-27T02:54:30.222Z,0.00
2018-08-27T02:55:30.251Z,0.00
2018-08-27T02:56:30.210Z,0.00
2018-08-27T02:57:30.209Z,0.00
2018-08-27T02:58:30.204Z,0.00
2018-08-27T02:59:30.200Z,0.00
2018-08-27T03:00:30.202Z,0.00
2018-08-27T03:01:30.195Z,0.00
2018-08-27T03:02:30.191Z,0.00
2018-08-27T03:03:30.184Z,0.00
2018-08-27T03:04:30.182Z,0.00
2018-08-27T03:05:30.176Z,0.00
2018-08-27T03:06:30.173Z,0.00
2018-08-27T03:07:30.169Z,0.00
2018-08-27T03:08:30.160Z,0.00
2018-08-27T03:09:30.161Z,0.00
2018-08-27T03:10:30.158Z,0.00
2018-08-27T03:11:30.151Z,0.00
2018-08-27T03:12:30.152Z,0.00
2018-08-27T03:13:30.157Z,0.00
2018-08-27T03:14:30.142Z,0.00
2018-08-27T03:15:30.140Z,0.00
2018-08-27T03:16:30.130Z,0.00
2018-08-27T03:17:30.124Z,0.00
2018-08-27T03:18:30.192Z,0.00
2018-08-27T03:19:30.125Z,0.00
2018-08-27T03:20:30.118Z,0.00
2018-08-27T03:21:30.131Z,0.00
2018-08-27T03:22:30.107Z,0.00
2018-08-27T03:23:30.104Z,0.00
2018-08-27T03:24:30.103Z,0.00
2018-08-27T03:25:30.098Z,0.00
2018-08-27T03:26:30.092Z,0.00
2018-08-27T03:27:30.089Z,0.00
2018-08-27T03:28:30.098Z,0.00
2018-08-27T03:29:30.078Z,0.00
2018-08-27T03:30:30.075Z,0.00
2018-08-27T03:31:30.074Z,0.00
2018-08-27T03:32:30.068Z,0.00
2018-08-27T03:33:30.062Z,0.00
2018-08-27T03:34:30.062Z,0.00
2018-08-27T03:35:30.055Z,0.00
2018-08-27T03:36:30.047Z,0.00
2018-08-27T03:37:30.048Z,0.00
2018-08-27T03:38:30.046Z,0.00
2018-08-27T03:39:30.054Z,0.00
2018-08-27T03:40:30.073Z,0.00
2018-08-27T03:41:30.030Z,0.00
2018-08-27T03:42:30.027Z,0.00
2018-08-27T03:43:30.025Z,0.00
2018-08-27T03:44:30.031Z,0.00
2018-08-27T03:45:30.024Z,0.00
2018-08-27T03:46:30.013Z,0.00
2018-08-27T03:47:30.011Z,0.00
2018-08-27T03:48:30.029Z,0.00
2018-08-27T03:49:29.997Z,0.00
2018-08-27T03:50:29.997Z,0.00
2018-08-27T03:51:29.992Z,0.00
2018-08-27T03:52:29.988Z,0.00
2018-08-27T03:53:29.986Z,0.00
2018-08-27T03:54:29.981Z,0.00
2018-08-27T03:55:29.974Z,0.00
2018-08-27T03:56:29.967Z,0.00
2018-08-27T03:57:29.965Z,0.00
2018-08-27T03:58:29.963Z,0.00
2018-08-27T03:59:29.958Z,0.00
2018-08-27T04:00:29.952Z,0.00
2018-08-27T04:01:29.951Z,0.00
2018-08-27T04:02:29.944Z,0.00
2018-08-27T04:03:29.942Z,0.00
2018-08-27T04:04:29.941Z,0.00
2018-08-27T04:05:29.934Z,0.00
2018-08-27T04:06:29.930Z,0.00
2018-08-27T04:07:29.927Z,0.00
2018-08-27T04:08:29.922Z,0.00
2018-08-27T04:09:29.919Z,0.00
2018-08-27T04:10:29.916Z,0.00
2018-08-27T04:11:29.908Z,0.00
2018-08-27T04:12:29.902Z,0.00
2018-08-27T04:13:29.905Z,0.00
2018-08-27T04:14:29.896Z,0.00
2018-08-27T04:15:29.891Z,0.00
2018-08-27T04:16:29.889Z,0.00
2018-08-27T04:17:29.884Z,0.00
2018-08-27T04:18:29.880Z,0.00
2018-08-27T04:19:29.876Z,0.00
2018-08-27T04:20:29.872Z,0.00
2018-08-27T04:21:29.868Z,0.00
2018-08-27T04:22:29.862Z,0.00
2018-08-27T04:23:29.852Z,0.00
2018-08-27T04:24:29.854Z,0.00
2018-08-27T04:25:29.851Z,0.00
2018-08-27T04:26:29.849Z,0.00
2018-08-27T04:27:29.855Z,0.00
2018-08-27T04:28:29.837Z,5.63
2018-08-27T04:29:29.838Z,5.63
2018-08-27T04:30:29.832Z,5.63
2018-08-27T04:31:29.826Z,5.63
2018-08-27T04:32:29.822Z,11.25
2018-08-27T04:33:29.822Z,11.25
2018-08-27T04:34:29.816Z,11.25
2018-08-27T04:35:29.818Z,11.25
2018-08-27T04:36:29.804Z,16.88
2018-08-27T04:37:29.802Z,16.88
2018-08-27T04:38:29.800Z,16.88
2018-08-27T04:39:29.792Z,16.88
2018-08-27T04:40:29.794Z,22.50
2018-08-27T04:41:29.786Z,22.50
2018-08-27T04:42:29.825Z,22.50
2018-08-27T04:43:29.775Z,22.50
2018-08-27T04:44:29.778Z,28.13
2018-08-27T04:45:29.768Z,28.13
2018-08-27T04:46:29.768Z,28.13
2018-08-27T04:47:29.759Z,28.13
2018-08-27T04:48:29.798Z,33.75
2018-08-27T04:49:29.758Z,33.75
2018-08-27T04:50:29.751Z,33.75
2018-08-27T04:51:29.751Z,39.38
2018-08-27T04:52:29.738Z,39.38
2018-08-27T04:53:29.738Z,39.38
2018-08-27T04:54:29.724Z,45.00
2018-08-27T04:55:29.727Z,45.00
2018-08-27T04:56:29.734Z,50.63
2018-08-27T04:57:29.722Z,56.25
2018-08-27T04:58:29.721Z,56.25
2018-08-27T04:59:29.731Z,61.88
2018-08-27T05:00:29.743Z,61.88
2018-08-27T05:01:29.701Z,61.88
2018-08-27T05:02:29.709Z,61.88
2018-08-27T05:03:29.697Z,61.88
2018-08-27T05:04:29.697Z,61.88
2018-08-27T05:05:29.688Z,56.25
2018-08-27T05:06:29.684Z,56.25
2018-08-27T05:07:29.699Z,56.25
2018-08-27T05:08:29.678Z,56.25
2018-08-27T05:09:29.673Z,56.25
2018-08-27T05:10:29.668Z,56.25
2018-08-27T05:11:29.666Z,56.25
2018-08-27T05:12:29.659Z,56.25
2018-08-27T05:13:29.659Z,56.25
2018-08-27T05:14:29.653Z,61.88
2018-08-27T05:15:29.657Z,61.88
2018-08-27T05:16:29.644Z,67.50
2018-08-27T05:17:29.640Z,67.50
2018-08-27T05:18:29.638Z,73.13
2018-08-27T05:19:29.636Z,78.75
2018-08-27T05:20:29.633Z,78.75
2018-08-27T05:21:29.623Z,84.38
2018-08-27T05:22:29.623Z,90.00
2018-08-27T05:23:29.622Z,95.63
2018-08-27T05:24:29.640Z,101.25
2018-08-27T05:25:29.615Z,106.88
2018-08-27T05:26:29.609Z,106.88
2018-08-27T05:27:29.601Z,106.88
2018-08-27T05:28:29.595Z,106.88
2018-08-27T05:29:29.596Z,106.88
2018-08-27T05:30:29.616Z,112.50
2018-08-27T05:31:29.666Z,112.50
2018-08-27T05:32:29.585Z,118.13
2018-08-27T05:33:29.597Z,118.13
2018-08-27T05:34:29.576Z,123.75
2018-08-27T05:35:29.571Z,123.75
2018-08-27T05:36:29.564Z,129.38
2018-08-27T05:37:29.562Z,129.38
2018-08-27T05:38:29.607Z,129.38
2018-08-27T05:39:29.556Z,135.00
2018-08-27T05:40:29.552Z,140.63
2018-08-27T05:41:29.549Z,146.25
2018-08-27T05:42:29.542Z,151.88
2018-08-27T05:43:29.539Z,157.50
2018-08-27T05:44:29.569Z,168.75
2018-08-27T05:45:29.534Z,180.00
2018-08-27T05:46:29.526Z,191.25
2018-08-27T05:47:29.532Z,202.50
2018-08-27T05:48:29.519Z,213.75
2018-08-27T05:49:29.518Z,225.00
2018-08-27T05:50:29.516Z,236.25
2018-08-27T05:51:29.513Z,241.88
2018-08-27T05:52:29.509Z,258.75
2018-08-27T05:53:29.502Z,270.00
2018-08-27T05:54:29.501Z,286.88
2018-08-27T05:55:29.495Z,303.75
2018-08-27T05:56:29.494Z,320.63
2018-08-27T05:57:29.489Z,337.50
2018-08-27T05:58:29.490Z,348.75
2018-08-27T05:59:29.482Z,354.38
2018-08-27T06:00:29.477Z,360.00
2018-08-27T06:01:29.551Z,371.25
2018-08-27T06:02:29.475Z,376.88
2018-08-27T06:03:29.473Z,382.50
2018-08-27T06:04:29.475Z,371.25
2018-08-27T06:05:29.464Z,376.88
2018-08-27T06:06:29.459Z,382.50
2018-08-27T06:07:29.452Z,388.13
2018-08-27T06:08:29.470Z,399.38
2018-08-27T06:09:29.451Z,410.63
2018-08-27T06:10:29.444Z,416.25
2018-08-27T06:11:29.444Z,421.88
2018-08-27T06:12:29.440Z,438.75
2018-08-27T06:13:29.433Z,466.88
2018-08-27T06:14:29.431Z,495.00
2018-08-27T06:15:29.426Z,551.25
2018-08-27T06:16:29.458Z,601.88
2018-08-27T06:17:29.422Z,652.50
2018-08-27T06:18:29.425Z,691.88
2018-08-27T06:19:29.417Z,686.25
2018-08-27T06:20:29.416Z,652.50
2018-08-27T06:21:29.408Z,613.13
2018-08-27T06:22:29.489Z,579.38
2018-08-27T06:23:29.405Z,596.25
2018-08-27T06:24:29.398Z,613.13
2018-08-27T06:25:29.402Z,613.13
2018-08-27T06:26:29.394Z,618.75
2018-08-27T06:27:29.386Z,607.50
2018-08-27T06:28:29.384Z,607.50
2018-08-27T06:29:29.383Z,601.88
2018-08-27T06:30:29.383Z,613.13
2018-08-27T06:31:29.374Z,630.00
2018-08-27T06:32:29.428Z,646.88
2018-08-27T06:33:29.370Z,663.75
2018-08-27T06:34:29.366Z,703.13
2018-08-27T06:35:29.363Z,725.63
2018-08-27T06:36:29.366Z,736.88
2018-08-27T06:37:29.354Z,742.50
2018-08-27T06:38:29.357Z,736.88
2018-08-27T06:39:29.365Z,708.75
2018-08-27T06:40:29.347Z,720.00
2018-08-27T06:41:29.348Z,748.13
2018-08-27T06:42:29.347Z,770.63
2018-08-27T06:43:29.341Z,810.00
2018-08-27T06:44:29.379Z,826.88
2018-08-27T06:45:29.344Z,843.75
2018-08-27T06:46:29.337Z,860.63
2018-08-27T06:47:29.333Z,860.63
2018-08-27T06:48:29.329Z,877.50
2018-08-27T06:49:29.328Z,894.38
2018-08-27T06:50:29.327Z,916.88
2018-08-27T06:51:29.321Z,928.13
2018-08-27T06:52:29.325Z,961.88
2018-08-27T06:53:29.321Z,950.63
2018-08-27T06:54:29.323Z,978.75
2018-08-27T06:55:29.324Z,1040.63
2018-08-27T06:56:29.324Z,1023.75
2018-08-27T06:57:29.319Z,1001.25
2018-08-27T06:58:29.323Z,1006.88
2018-08-27T06:59:29.316Z,1023.75
2018-08-27T07:00:29.318Z,1051.88
2018-08-27T07:01:29.325Z,1080.00
2018-08-27T07:02:29.318Z,1181.25
2018-08-27T07:03:29.321Z,1355.63
2018-08-27T07:04:29.320Z,1350.00
2018-08-27T07:05:29.326Z,1276.88
2018-08-27T07:06:29.320Z,1310.63
2018-08-27T07:07:29.373Z,1248.75
2018-08-27T07:08:29.321Z,1237.50
2018-08-27T07:09:29.320Z,1248.75
2018-08-27T07:10:29.325Z,1254.38
2018-08-27T07:11:29.321Z,1226.25
2018-08-27T07:12:29.325Z,1203.75
2018-08-27T07:13:29.329Z,1203.75
2018-08-27T07:14:29.327Z,1209.38
2018-08-27T07:15:29.379Z,1175.63
2018-08-27T07:16:29.339Z,1158.75
2018-08-27T07:17:29.332Z,1175.63
2018-08-27T07:18:29.335Z,1215.00
2018-08-27T07:19:29.330Z,1226.25
2018-08-27T07:20:29.337Z,1215.00
2018-08-27T07:21:29.339Z,1215.00
2018-08-27T07:22:29.361Z,1209.38
2018-08-27T07:23:29.342Z,1215.00
2018-08-27T07:24:29.347Z,1192.50
2018-08-27T07:25:29.347Z,1175.63
2018-08-27T07:26:29.350Z,1158.75
2018-08-27T07:27:29.443Z,1125.00
2018-08-27T07:28:29.351Z,1080.00
2018-08-27T07:29:29.353Z,1080.00
2018-08-27T07:30:29.357Z,1074.38
2018-08-27T07:31:29.366Z,1451.25
2018-08-27T07:32:29.370Z,1147.50
2018-08-27T07:33:29.361Z,1850.63
2018-08-27T07:34:29.382Z,1569.38
2018-08-27T07:35:29.422Z,1856.25
2018-08-27T07:36:29.394Z,1333.13
2018-08-27T07:37:29.381Z,1530.00
2018-08-27T07:38:29.391Z,2362.50
2018-08-27T07:39:29.379Z,2176.88
2018-08-27T07:40:29.383Z,1968.75
2018-08-27T07:41:29.395Z,1681.88
2018-08-27T07:42:29.391Z,1389.38
2018-08-27T07:43:29.454Z,1288.13
2018-08-27T07:44:29.398Z,1344.38
2018-08-27T07:45:29.404Z,1321.88
2018-08-27T07:46:29.405Z,1501.88
2018-08-27T07:47:29.409Z,1968.75
2018-08-27T07:48:29.413Z,1800.00
2018-08-27T07:49:29.418Z,2098.13
2018-08-27T07:50:29.467Z,1906.88
2018-08-27T07:51:29.429Z,2266.88
2018-08-27T07:52:29.450Z,2210.63
2018-08-27T07:53:29.440Z,1575.00
2018-08-27T07:54:29.447Z,1389.38
2018-08-27T07:55:29.445Z,1350.00
2018-08-27T07:56:29.450Z,1316.25
2018-08-27T07:57:29.556Z,1321.88
2018-08-27T07:58:29.486Z,1676.25
2018-08-27T07:59:29.470Z,1456.88
2018-08-27T08:00:29.516Z,1518.75
2018-08-27T08:01:29.489Z,1586.25
2018-08-27T08:02:29.485Z,1794.38
2018-08-27T08:03:29.486Z,1530.00
2018-08-27T08:04:29.564Z,1490.63
2018-08-27T08:05:29.500Z,1755.00
2018-08-27T08:06:29.507Z,1479.38
2018-08-27T08:07:29.513Z,1738.13
2018-08-27T08:08:29.630Z,2109.38
2018-08-27T08:09:29.516Z,2227.50
2018-08-27T08:10:29.528Z,1625.63
2018-08-27T08:11:29.533Z,2896.88
2018-08-27T08:12:29.549Z,2036.25
2018-08-27T08:13:29.538Z,2581.88
2018-08-27T08:14:29.552Z,2660.63
2018-08-27T08:15:29.560Z,2649.38
2018-08-27T08:16:29.587Z,2581.88
2018-08-27T08:17:29.574Z,3178.13
2018-08-27T08:18:29.585Z,2143.13
2018-08-27T08:19:29.642Z,2205.00
2018-08-27T08:20:29.604Z,1861.88
2018-08-27T08:21:29.620Z,2385.00
2018-08-27T08:22:29.624Z,1693.13
2018-08-27T08:23:29.638Z,1760.63
2018-08-27T08:24:29.642Z,1890.00
2018-08-27T08:25:29.650Z,1755.00
2018-08-27T08:26:29.656Z,2306.25
2018-08-27T08:27:29.667Z,1890.00
2018-08-27T08:28:29.671Z,2767.50
2018-08-27T08:29:29.753Z,2722.50
2018-08-27T08:30:29.697Z,2835.00
2018-08-27T08:31:29.755Z,2964.38
2018-08-27T08:32:29.719Z,2919.38
2018-08-27T08:33:29.749Z,2531.25
2018-08-27T08:34:29.735Z,2019.38
2018-08-27T08:35:29.759Z,2469.38
2018-08-27T08:36:29.758Z,1906.88
2018-08-27T08:37:29.780Z,2514.38
2018-08-27T08:38:29.795Z,2671.88
2018-08-27T08:39:29.792Z,2610.00
2018-08-27T08:40:29.806Z,2542.50
2018-08-27T08:41:29.815Z,2514.38
2018-08-27T08:42:29.828Z,2475.00
2018-08-27T08:43:29.838Z,2390.63
2018-08-27T08:44:29.847Z,2221.88
2018-08-27T08:45:29.862Z,2311.88
2018-08-27T08:46:29.865Z,2328.75
2018-08-27T08:47:29.895Z,2362.50
2018-08-27T08:48:29.899Z,2345.63
2018-08-27T08:49:29.921Z,2418.75
2018-08-27T08:50:29.936Z,2491.88
2018-08-27T08:51:29.942Z,2497.50
2018-08-27T08:52:29.958Z,2542.50
2018-08-27T08:53:29.974Z,2446.88
2018-08-27T08:54:29.981Z,2351.25
2018-08-27T08:55:29.997Z,2368.13
2018-08-27T08:56:30.006Z,2463.75
2018-08-27T08:57:30.035Z,2334.38
2018-08-27T08:58:30.038Z,2373.75
2018-08-27T08:59:30.049Z,2441.25
2018-08-27T09:00:30.068Z,2508.75
2018-08-27T09:01:30.139Z,2548.13
2018-08-27T09:02:30.093Z,2525.63
2018-08-27T09:03:30.102Z,2458.13
2018-08-27T09:04:30.121Z,2469.38
2018-08-27T09:05:30.143Z,2531.25
2018-08-27T09:06:30.237Z,2441.25
2018-08-27T09:07:30.163Z,2480.63
2018-08-27T09:08:30.199Z,2508.75
2018-08-27T09:09:30.207Z,2531.25
2018-08-27T09:10:30.226Z,2525.63
2018-08-27T09:11:30.232Z,2621.25
2018-08-27T09:12:30.269Z,2806.88
2018-08-27T09:13:30.277Z,2953.13
2018-08-27T09:14:30.279Z,2812.50
2018-08-27T09:15:30.302Z,2598.75
2018-08-27T09:16:30.320Z,2531.25
2018-08-27T09:17:30.384Z,2491.88
2018-08-27T09:18:30.378Z,2475.00
2018-08-27T09:19:30.392Z,2615.63
2018-08-27T09:20:31.266Z,2576.25
2018-08-27T09:21:30.377Z,2632.50
2018-08-27T09:22:30.404Z,2587.50
2018-08-27T09:23:30.457Z,2739.38
2018-08-27T09:24:30.419Z,2632.50
2018-08-27T09:25:30.464Z,2655.00
2018-08-27T09:26:30.461Z,2874.38
2018-08-27T09:27:30.469Z,2688.75
2018-08-27T09:28:30.485Z,2491.88
2018-08-27T09:29:30.516Z,2626.88
2018-08-27T09:30:30.520Z,2733.75
2018-08-27T09:31:30.611Z,2666.25
2018-08-27T09:32:30.543Z,2896.88
2018-08-27T09:33:30.556Z,3054.38
2018-08-27T09:34:30.570Z,2829.38
2018-08-27T09:35:30.583Z,2958.75
2018-08-27T09:36:30.603Z,3031.88
2018-08-27T09:37:30.616Z,2407.50
2018-08-27T09:38:30.639Z,2818.13
2018-08-27T09:39:30.646Z,2761.88
2018-08-27T09:40:30.655Z,2851.88
2018-08-27T09:41:30.697Z,2891.25
2018-08-27T09:42:30.720Z,2778.75
2018-08-27T09:43:30.749Z,2739.38
2018-08-27T09:44:30.755Z,2711.25
2018-08-27T09:45:30.762Z,2570.63
2018-08-27T09:46:30.767Z,2193.75
2018-08-27T09:47:30.776Z,2435.63
2018-08-27T09:48:30.812Z,2750.63
2018-08-27T09:49:30.823Z,2784.38
2018-08-27T09:50:30.812Z,2795.63
2018-08-27T09:51:30.830Z,2846.25
2018-08-27T09:52:30.844Z,2626.88
2018-08-27T09:53:30.862Z,2548.13
2018-08-27T09:54:30.874Z,2514.38
2018-08-27T09:55:30.894Z,2756.25
2018-08-27T09:56:30.906Z,2975.63
2018-08-27T09:57:30.922Z,2368.13
2018-08-27T09:58:30.969Z,2300.63
2018-08-27T09:59:30.950Z,3363.75
2018-08-27T10:00:30.966Z,2120.63
2018-08-27T10:01:30.983Z,2632.50
2018-08-27T10:02:30.994Z,2531.25
2018-08-27T10:03:31.020Z,2306.25
2018-08-27T10:04:31.035Z,2047.50
2018-08-27T10:05:31.102Z,1884.38
2018-08-27T10:06:31.064Z,1856.25
2018-08-27T10:07:31.067Z,2469.38
2018-08-27T10:08:31.078Z,2334.38
2018-08-27T10:09:31.098Z,2092.50
2018-08-27T10:10:31.145Z,1935.00
2018-08-27T10:11:31.756Z,1935.00
2018-08-27T10:12:31.153Z,2047.50
2018-08-27T10:13:31.152Z,2199.38
2018-08-27T10:14:31.156Z,2227.50
2018-08-27T10:15:31.167Z,2109.38
2018-08-27T10:16:31.217Z,1996.88
2018-08-27T10:17:31.219Z,2300.63
2018-08-27T10:18:31.217Z,2131.88
2018-08-27T10:19:31.221Z,2289.38
2018-08-27T10:20:31.228Z,3065.63
2018-08-27T10:21:31.238Z,2520.00
2018-08-27T10:22:31.326Z,2812.50
2018-08-27T10:23:31.270Z,2576.25
2018-08-27T10:24:31.276Z,2244.38
2018-08-27T10:25:31.296Z,2081.25
2018-08-27T10:26:31.390Z,1805.63
2018-08-27T10:27:31.311Z,1715.63
2018-08-27T10:28:31.323Z,1760.63
2018-08-27T10:29:31.342Z,1693.13
2018-08-27T10:30:31.345Z,1811.25
2018-08-27T10:31:31.378Z,1884.38
2018-08-27T10:32:31.368Z,1755.00
2018-08-27T10:33:31.389Z,1721.25
2018-08-27T10:34:31.386Z,1698.75
2018-08-27T10:35:31.400Z,1693.13
2018-08-27T10:36:31.441Z,1681.88
2018-08-27T10:37:31.414Z,1580.63
2018-08-27T10:38:31.424Z,1563.75
2018-08-27T10:39:31.434Z,1755.00
2018-08-27T10:40:31.449Z,1665.00
2018-08-27T10:41:31.454Z,1676.25
2018-08-27T10:42:31.468Z,1845.00
2018-08-27T10:43:31.475Z,1957.50
2018-08-27T10:44:31.482Z,2210.63
2018-08-27T10:45:31.576Z,2272.50
2018-08-27T10:46:31.499Z,2154.38
2018-08-27T10:47:31.504Z,2295.00
2018-08-27T10:48:31.519Z,2373.75
2018-08-27T10:49:31.521Z,2081.25
2018-08-27T10:50:31.540Z,1929.38
2018-08-27T10:51:31.540Z,2233.13
2018-08-27T10:52:31.550Z,1974.38
2018-08-27T10:53:31.560Z,2008.13
2018-08-27T10:54:31.571Z,2233.13
2018-08-27T10:55:31.582Z,2002.50
2018-08-27T10:56:31.592Z,2058.75
2018-08-27T10:57:31.595Z,1912.50
2018-08-27T10:58:31.690Z,2058.75
2018-08-27T10:59:31.614Z,2002.50
2018-08-27T11:00:31.626Z,1923.75
2018-08-27T11:01:31.627Z,1906.88
2018-08-27T11:02:31.644Z,2559.38
2018-08-27T11:03:31.661Z,2216.25
2018-08-27T11:04:31.660Z,2216.25
2018-08-27T11:05:31.673Z,2700.00
2018-08-27T11:06:31.680Z,2829.38
2018-08-27T11:07:31.690Z,2570.63
2018-08-27T11:08:31.720Z,2930.63
2018-08-27T11:09:31.708Z,2902.50
2018-08-27T11:10:31.753Z,2514.38
2018-08-27T11:11:31.751Z,2902.50
2018-08-27T11:12:31.748Z,2525.63
2018-08-27T11:13:31.752Z,2874.38
2018-08-27T11:14:31.765Z,3031.88
2018-08-27T11:15:31.773Z,2835.00
2018-08-27T11:16:31.785Z,2570.63
2018-08-27T11:17:31.798Z,2930.63
2018-08-27T11:18:31.809Z,2891.25
2018-08-27T11:19:31.958Z,2936.25
2018-08-27T11:20:32.019Z,2812.50
2018-08-27T11:21:31.843Z,2745.00
2018-08-27T11:22:31.859Z,2565.00
2018-08-27T11:23:31.871Z,1845.00
2018-08-27T11:24:31.882Z,2981.25
2018-08-27T11:25:31.895Z,2975.63
2018-08-27T11:26:32.065Z,2756.25
2018-08-27T11:27:31.923Z,2902.50
2018-08-27T11:28:31.938Z,2992.50
2018-08-27T11:29:31.952Z,3037.50
2018-08-27T11:30:31.966Z,3037.50
2018-08-27T11:31:31.976Z,3110.63
2018-08-27T11:32:31.991Z,3043.13
2018-08-27T11:33:32.015Z,3020.63
2018-08-27T11:34:32.020Z,3020.63
2018-08-27T11:35:32.028Z,2992.50
2018-08-27T11:36:32.061Z,2857.50
2018-08-27T11:37:32.062Z,2722.50
2018-08-27T11:38:32.083Z,2840.63
2018-08-27T11:39:32.089Z,2998.13
2018-08-27T11:40:32.095Z,2953.13
2018-08-27T11:41:32.114Z,2936.25
2018-08-27T11:42:32.124Z,2835.00
2018-08-27T11:43:32.232Z,2947.50
2018-08-27T11:44:32.210Z,2593.13
2018-08-27T11:45:32.169Z,2823.75
2018-08-27T11:46:32.266Z,2188.13
2018-08-27T11:47:32.195Z,1845.00
2018-08-27T11:48:32.216Z,1698.75
2018-08-27T11:49:32.231Z,1468.13
2018-08-27T11:50:32.290Z,1518.75
2018-08-27T11:51:32.332Z,1310.63
2018-08-27T11:52:32.313Z,1231.88
2018-08-27T11:53:32.274Z,1361.25
2018-08-27T11:54:32.304Z,1861.88
2018-08-27T11:55:32.305Z,2992.50
2018-08-27T11:56:32.341Z,3133.13
2018-08-27T11:57:32.351Z,2401.88
2018-08-27T11:58:32.346Z,2053.13
2018-08-27T11:59:32.371Z,2688.75
2018-08-27T12:00:32.356Z,3150.00
2018-08-27T12:01:32.416Z,3105.00
2018-08-27T12:02:32.384Z,1310.63
2018-08-27T12:03:32.434Z,1350.00
2018-08-27T12:04:32.426Z,1215.00
2018-08-27T12:05:32.485Z,1153.13
2018-08-27T12:06:32.492Z,1541.25
2018-08-27T12:07:32.439Z,1231.88
2018-08-27T12:08:32.458Z,1102.50
2018-08-27T12:09:32.457Z,1260.00
2018-08-27T12:10:32.472Z,2334.38
2018-08-27T12:11:32.476Z,2998.13
2018-08-27T12:12:32.490Z,3121.88
2018-08-27T12:13:32.498Z,1209.38
2018-08-27T12:14:32.541Z,1074.38
2018-08-27T12:15:32.519Z,1074.38
2018-08-27T12:16:32.523Z,1203.75
2018-08-27T12:17:32.596Z,1462.50
2018-08-27T12:18:32.561Z,1884.38
2018-08-27T12:19:32.552Z,1805.63
2018-08-27T12:20:32.557Z,1490.63
2018-08-27T12:21:32.566Z,1400.63
2018-08-27T12:22:32.583Z,1350.00
2018-08-27T12:23:32.582Z,1378.13
2018-08-27T12:24:32.594Z,1411.88
2018-08-27T12:25:32.604Z,1518.75
2018-08-27T12:26:32.609Z,1530.00
2018-08-27T12:27:32.620Z,1417.50
2018-08-27T12:28:32.673Z,1344.38
2018-08-27T12:29:32.628Z,1282.50
2018-08-27T12:30:32.683Z,1260.00
2018-08-27T12:31:32.645Z,1282.50
2018-08-27T12:32:32.654Z,1276.88
2018-08-27T12:33:32.705Z,1243.13
2018-08-27T12:34:32.662Z,1198.13
2018-08-27T12:35:32.662Z,1175.63
2018-08-27T12:36:32.678Z,1181.25
2018-08-27T12:37:32.744Z,1181.25
2018-08-27T12:38:32.686Z,1125.00
2018-08-27T12:39:32.755Z,1046.25
2018-08-27T12:40:32.760Z,990.00
2018-08-27T12:41:32.698Z,933.75
2018-08-27T12:42:32.709Z,911.25
2018-08-27T12:43:32.751Z,916.88
2018-08-27T12:44:32.716Z,894.38
2018-08-27T12:45:32.714Z,860.63
2018-08-27T12:46:32.741Z,821.25
2018-08-27T12:47:32.854Z,793.13
2018-08-27T12:48:32.773Z,748.13
2018-08-27T12:49:32.746Z,703.13
2018-08-27T12:50:32.750Z,697.50
2018-08-27T12:51:32.756Z,703.13
2018-08-27T12:52:32.831Z,686.25
2018-08-27T12:53:32.771Z,686.25
2018-08-27T12:54:32.767Z,686.25
2018-08-27T12:55:32.771Z,686.25
2018-08-27T12:56:32.777Z,686.25
2018-08-27T12:57:32.783Z,691.88
2018-08-27T12:58:32.861Z,708.75
2018-08-27T12:59:32.796Z,720.00
2018-08-27T13:00:32.794Z,708.75
2018-08-27T13:01:32.805Z,759.38
2018-08-27T13:02:32.893Z,776.25
2018-08-27T13:03:32.806Z,787.50
2018-08-27T13:04:32.823Z,748.13
2018-08-27T13:05:32.839Z,725.63
2018-08-27T13:06:32.824Z,731.25
2018-08-27T13:07:32.851Z,736.88
2018-08-27T13:08:32.824Z,742.50
2018-08-27T13:09:32.831Z,725.63
2018-08-27T13:10:32.841Z,753.75
2018-08-27T13:11:32.856Z,765.00
2018-08-27T13:12:32.953Z,759.38
2018-08-27T13:13:32.862Z,736.88
2018-08-27T13:14:32.888Z,736.88
2018-08-27T13:15:32.881Z,736.88
2018-08-27T13:16:32.877Z,725.63
2018-08-27T13:17:32.863Z,731.25
2018-08-27T13:18:32.895Z,736.88